PWSweather.com
Personal Weather Stations
Station Observations
LEONMETEO
LeonES 24008

LeonES 24008

Lat: 42.6055559, Lon: -5.5752249

Elevation: 2690

Station Type: La Crosse WS3600

Latest ConditionsUpdated 2:26:02 PM GMT+01:01 Friday, Oct 31, 2014
Currently Today's Max Today's Min Today's Average
Temperature 67.2°F19.6°C 67.2°F19.6°C 46.5°F8.1°C 52.4°F11.3°C
Dew Point 53.3°F11.8°C 53.4°F11.9°C 40.4°F4.7°C 44.6°F7.0°C
Winds - N16091.8 kmh N Calm Calm - Calm Calm
Wind Gusts -- -- - -
Humidity 61% 80% 61% 75%
Pressure 29.93 in1013.5 mb 29.98 in1015.2 mb 29.93 in1013.5 mb -
Hour Temp Dew Point Humidity Winds Wind Gusts Pressure Precip Precip Rate Daily Precip Total
02:26 PM 67.2°F19.6°C 53.3°F11.8°C 61% - N16091.8 kmh N -- 29.93 in1013.5 mb 0.00 in0.0 mm 0.00 in/hr0.0 mm/hr 0.00 in0.0 mm
02:21 PM 66.9°F19.4°C 53.4°F11.9°C 61% - N16091.8 kmh N -- 29.93 in1013.5 mb 0.00 in0.0 mm 0.00 in/hr0.0 mm/hr 0.00 in0.0 mm
02:16 PM 66.9°F19.4°C 53.4°F11.9°C 62% - N16091.8 kmh N -- 29.93 in1013.5 mb 0.00 in0.0 mm 0.00 in/hr0.0 mm/hr 0.00 in0.0 mm
02:11 PM 66.5°F19.2°C 53.1°F11.7°C 62% - N16091.8 kmh N -- 29.93 in1013.5 mb 0.00 in0.0 mm 0.00 in/hr0.0 mm/hr 0.00 in0.0 mm
02:06 PM 66.0°F18.9°C 52.6°F11.4°C 62% - N16091.8 kmh N -- 29.93 in1013.5 mb 0.00 in0.0 mm 0.00 in/hr0.0 mm/hr 0.00 in0.0 mm
02:01 PM 65.8°F18.8°C 52.4°F11.3°C 62% - N16091.8 kmh N -- 29.93 in1013.5 mb 0.00 in0.0 mm 0.00 in/hr0.0 mm/hr 0.00 in0.0 mm
01:56 PM 65.8°F18.8°C 52.4°F11.3°C 62% - N16091.8 kmh N -- 29.93 in1013.5 mb 0.00 in0.0 mm 0.00 in/hr0.0 mm/hr 0.00 in0.0 mm
01:51 PM 65.4°F18.6°C 52.5°F11.4°C 63% - N16091.8 kmh N -- 29.93 in1013.5 mb 0.00 in0.0 mm 0.00 in/hr0.0 mm/hr 0.00 in0.0 mm
01:46 PM 65.1°F18.4°C 52.1°F11.2°C 63% - N16091.8 kmh N -- 29.93 in1013.5 mb 0.00 in0.0 mm 0.00 in/hr0.0 mm/hr 0.00 in0.0 mm
01:41 PM 64.9°F18.3°C 52.4°F11.3°C 63% - N16091.8 kmh N -- 29.94 in1013.9 mb 0.00 in0.0 mm 0.00 in/hr0.0 mm/hr 0.00 in0.0 mm
01:36 PM 64.7°F18.2°C 52.2°F11.2°C 64% - N16091.8 kmh N -- 29.94 in1013.9 mb 0.00 in0.0 mm 0.00 in/hr0.0 mm/hr 0.00 in0.0 mm
01:31 PM 64.5°F18.1°C 52.0°F11.1°C 64% - N16091.8 kmh N -- 29.94 in1013.9 mb 0.00 in0.0 mm 0.00 in/hr0.0 mm/hr 0.00 in0.0 mm
01:26 PM 64.2°F17.9°C 51.7°F10.9°C 64% - N16091.8 kmh N -- 29.94 in1013.9 mb 0.00 in0.0 mm 0.00 in/hr0.0 mm/hr 0.00 in0.0 mm
01:21 PM 64.0°F17.8°C 52.0°F11.1°C 65% - N16091.8 kmh N -- 29.94 in1013.9 mb 0.00 in0.0 mm 0.00 in/hr0.0 mm/hr 0.00 in0.0 mm
01:15 PM 63.6°F17.6°C 51.6°F10.9°C 65% - N16091.8 kmh N -- 29.94 in1013.9 mb 0.00 in0.0 mm 0.00 in/hr0.0 mm/hr 0.00 in0.0 mm
01:10 PM 63.3°F17.4°C 51.7°F10.9°C 65% - N16091.8 kmh N -- 29.94 in1013.9 mb 0.00 in0.0 mm 0.00 in/hr0.0 mm/hr 0.00 in0.0 mm
01:05 PM 63.1°F17.3°C 51.5°F10.8°C 66% - N16091.8 kmh N -- 29.94 in1013.9 mb 0.00 in0.0 mm 0.00 in/hr0.0 mm/hr 0.00 in0.0 mm
01:00 PM 62.7°F17.1°C 51.2°F10.7°C 66% - N16091.8 kmh N -- 29.94 in1013.9 mb 0.00 in0.0 mm 0.00 in/hr0.0 mm/hr 0.00 in0.0 mm
12:55 PM 62.2°F16.8°C 51.1°F10.6°C 67% - N16091.8 kmh N -- 29.95 in1014.2 mb 0.00 in0.0 mm 0.00 in/hr0.0 mm/hr 0.00 in0.0 mm
12:50 PM 61.8°F16.6°C 51.2°F10.7°C 67% - N16091.8 kmh N -- 29.95 in1014.2 mb 0.00 in0.0 mm 0.00 in/hr0.0 mm/hr 0.00 in0.0 mm
12:45 PM 61.7°F16.5°C 51.0°F10.6°C 68% - N16091.8 kmh N -- 29.96 in1014.6 mb 0.00 in0.0 mm 0.00 in/hr0.0 mm/hr 0.00 in0.0 mm
12:40 PM 61.3°F16.3°C 50.7°F10.4°C 68% - N16091.8 kmh N -- 29.96 in1014.6 mb 0.00 in0.0 mm 0.00 in/hr0.0 mm/hr 0.00 in0.0 mm
12:35 PM 60.9°F16.1°C 50.8°F10.4°C 69% - N16091.8 kmh N -- 29.96 in1014.6 mb 0.00 in0.0 mm 0.00 in/hr0.0 mm/hr 0.00 in0.0 mm
12:30 PM 60.4°F15.8°C 50.7°F10.4°C 70% - N16091.8 kmh N -- 29.96 in1014.6 mb 0.00 in0.0 mm 0.00 in/hr0.0 mm/hr 0.00 in0.0 mm
12:25 PM 60.2°F15.7°C 50.5°F10.3°C 70% - N16091.8 kmh N -- 29.96 in1014.6 mb 0.00 in0.0 mm 0.00 in/hr0.0 mm/hr 0.00 in0.0 mm
12:20 PM 59.7°F15.4°C 50.0°F10.0°C 70% - N16091.8 kmh N -- 29.96 in1014.6 mb 0.00 in0.0 mm 0.00 in/hr0.0 mm/hr 0.00 in0.0 mm
12:15 PM 59.5°F15.3°C 49.8°F9.9°C 70% - N16091.8 kmh N -- 29.96 in1014.6 mb 0.00 in0.0 mm 0.00 in/hr0.0 mm/hr 0.00 in0.0 mm
12:10 PM 59.0°F15.0°C 49.6°F9.8°C 71% - N16091.8 kmh N -- 29.96 in1014.6 mb 0.00 in0.0 mm 0.00 in/hr0.0 mm/hr 0.00 in0.0 mm
12:05 PM 59.0°F15.0°C 49.6°F9.8°C 71% - N16091.8 kmh N -- 29.97 in1014.9 mb 0.00 in0.0 mm 0.00 in/hr0.0 mm/hr 0.00 in0.0 mm
12:00 PM 58.6°F14.8°C 49.6°F9.8°C 72% - N16091.8 kmh N -- 29.97 in1014.9 mb 0.00 in0.0 mm 0.00 in/hr0.0 mm/hr 0.00 in0.0 mm
11:55 AM 58.2°F14.6°C 49.2°F9.6°C 72% - N16091.8 kmh N -- 29.97 in1014.9 mb 0.00 in0.0 mm 0.00 in/hr0.0 mm/hr 0.00 in0.0 mm
11:50 AM 58.1°F14.5°C 49.1°F9.5°C 72% - N16091.8 kmh N -- 29.97 in1014.9 mb 0.00 in0.0 mm 0.00 in/hr0.0 mm/hr 0.00 in0.0 mm
11:45 AM 57.7°F14.3°C 49.1°F9.5°C 73% - N16091.8 kmh N -- 29.97 in1014.9 mb 0.00 in0.0 mm 0.00 in/hr0.0 mm/hr 0.00 in0.0 mm
11:40 AM 57.7°F14.3°C 49.1°F9.5°C 73% - N16091.8 kmh N -- 29.97 in1014.9 mb 0.00 in0.0 mm 0.00 in/hr0.0 mm/hr 0.00 in0.0 mm
11:35 AM 57.3°F14.1°C 49.1°F9.5°C 73% - N16091.8 kmh N -- 29.97 in1014.9 mb 0.00 in0.0 mm 0.00 in/hr0.0 mm/hr 0.00 in0.0 mm
11:30 AM 57.0°F13.9°C 48.7°F9.3°C 74% - N16091.8 kmh N -- 29.97 in1014.9 mb 0.00 in0.0 mm 0.00 in/hr0.0 mm/hr 0.00 in0.0 mm
11:25 AM 56.8°F13.8°C 48.5°F9.2°C 74% - N16091.8 kmh N -- 29.97 in1014.9 mb 0.00 in0.0 mm 0.00 in/hr0.0 mm/hr 0.00 in0.0 mm
11:20 AM 56.4°F13.6°C 48.2°F9.0°C 74% - N16091.8 kmh N -- 29.97 in1014.9 mb 0.00 in0.0 mm 0.00 in/hr0.0 mm/hr 0.00 in0.0 mm
11:15 AM 56.3°F13.5°C 48.4°F9.1°C 75% - N16091.8 kmh N -- 29.97 in1014.9 mb 0.00 in0.0 mm 0.00 in/hr0.0 mm/hr 0.00 in0.0 mm
11:10 AM 55.9°F13.3°C 48.0°F8.9°C 75% - N16091.8 kmh N -- 29.97 in1014.9 mb 0.00 in0.0 mm 0.00 in/hr0.0 mm/hr 0.00 in0.0 mm
11:05 AM 55.5°F13.1°C 48.0°F8.9°C 76% - N16091.8 kmh N -- 29.97 in1014.9 mb 0.00 in0.0 mm 0.00 in/hr0.0 mm/hr 0.00 in0.0 mm
11:00 AM 55.0°F12.8°C 47.9°F8.8°C 76% - N16091.8 kmh N -- 29.97 in1014.9 mb 0.00 in0.0 mm 0.00 in/hr0.0 mm/hr 0.00 in0.0 mm
10:55 AM 54.6°F12.6°C 47.5°F8.6°C 77% - N16091.8 kmh N -- 29.97 in1014.9 mb 0.00 in0.0 mm 0.00 in/hr0.0 mm/hr 0.00 in0.0 mm
10:50 AM 54.3°F12.4°C 47.2°F8.4°C 77% - N16091.8 kmh N -- 29.97 in1014.9 mb 0.00 in0.0 mm 0.00 in/hr0.0 mm/hr 0.00 in0.0 mm
10:45 AM 54.1°F12.3°C 47.4°F8.6°C 78% - N16091.8 kmh N -- 29.97 in1014.9 mb 0.00 in0.0 mm 0.00 in/hr0.0 mm/hr 0.00 in0.0 mm
10:40 AM 53.4°F11.9°C 46.7°F8.2°C 78% - N16091.8 kmh N -- 29.97 in1014.9 mb 0.00 in0.0 mm 0.00 in/hr0.0 mm/hr 0.00 in0.0 mm
10:35 AM 53.0°F11.7°C 46.7°F8.2°C 79% - N16091.8 kmh N -- 29.97 in1014.9 mb 0.00 in0.0 mm 0.00 in/hr0.0 mm/hr 0.00 in0.0 mm
10:30 AM 52.7°F11.5°C 46.4°F8.0°C 79% - N16091.8 kmh N -- 29.98 in1015.2 mb 0.00 in0.0 mm 0.00 in/hr0.0 mm/hr 0.00 in0.0 mm
10:25 AM 52.5°F11.4°C 46.2°F7.9°C 79% - N16091.8 kmh N -- 29.98 in1015.2 mb 0.00 in0.0 mm 0.00 in/hr0.0 mm/hr 0.00 in0.0 mm
10:20 AM 51.9°F11.1°C 45.6°F7.6°C 79% - N16091.8 kmh N -- 29.97 in1014.9 mb 0.00 in0.0 mm 0.00 in/hr0.0 mm/hr 0.00 in0.0 mm
10:15 AM 51.4°F10.8°C 45.1°F7.3°C 79% - N16091.8 kmh N -- 29.97 in1014.9 mb 0.00 in0.0 mm 0.00 in/hr0.0 mm/hr 0.00 in0.0 mm
10:10 AM 51.4°F10.8°C 45.1°F7.3°C 79% - N16091.8 kmh N -- 29.97 in1014.9 mb 0.00 in0.0 mm 0.00 in/hr0.0 mm/hr 0.00 in0.0 mm
10:05 AM 50.7°F10.4°C 44.4°F6.9°C 79% - N16091.8 kmh N -- 29.97 in1014.9 mb 0.00 in0.0 mm 0.00 in/hr0.0 mm/hr 0.00 in0.0 mm
10:00 AM 50.5°F10.3°C 44.2°F6.8°C 79% - N16091.8 kmh N -- 29.97 in1014.9 mb 0.00 in0.0 mm 0.00 in/hr0.0 mm/hr 0.00 in0.0 mm
09:55 AM 50.1°F10.1°C 43.9°F6.6°C 79% - N16091.8 kmh N -- 29.98 in1015.2 mb 0.00 in0.0 mm 0.00 in/hr0.0 mm/hr 0.00 in0.0 mm
09:50 AM 49.6°F9.8°C 43.7°F6.5°C 80% - N16091.8 kmh N -- 29.97 in1014.9 mb 0.00 in0.0 mm 0.00 in/hr0.0 mm/hr 0.00 in0.0 mm
09:45 AM 49.4°F9.7°C 43.5°F6.4°C 80% - N16091.8 kmh N -- 29.97 in1014.9 mb 0.00 in0.0 mm 0.00 in/hr0.0 mm/hr 0.00 in0.0 mm
09:40 AM 49.1°F9.5°C 43.1°F6.2°C 80% - N16091.8 kmh N -- 29.97 in1014.9 mb 0.00 in0.0 mm 0.00 in/hr0.0 mm/hr 0.00 in0.0 mm
09:35 AM 48.7°F9.3°C 42.4°F5.8°C 79% - N16091.8 kmh N -- 29.98 in1015.2 mb 0.00 in0.0 mm 0.00 in/hr0.0 mm/hr 0.00 in0.0 mm
09:30 AM 48.3°F9.1°C 42.1°F5.6°C 79% - N16091.8 kmh N -- 29.97 in1014.9 mb 0.00 in0.0 mm 0.00 in/hr0.0 mm/hr 0.00 in0.0 mm
09:25 AM 48.3°F9.1°C 42.1°F5.6°C 79% - N16091.8 kmh N -- 29.98 in1015.2 mb 0.00 in0.0 mm 0.00 in/hr0.0 mm/hr 0.00 in0.0 mm
09:20 AM 48.0°F8.9°C 41.7°F5.4°C 79% - N16091.8 kmh N -- 29.98 in1015.2 mb 0.00 in0.0 mm 0.00 in/hr0.0 mm/hr 0.00 in0.0 mm
09:14 AM 47.8°F8.8°C 41.9°F5.5°C 80% - N16091.8 kmh N -- 29.97 in1014.9 mb 0.00 in0.0 mm 0.00 in/hr0.0 mm/hr 0.00 in0.0 mm
09:09 AM 47.4°F8.6°C 41.6°F5.3°C 80% - N16091.8 kmh N -- 29.97 in1014.9 mb 0.00 in0.0 mm 0.00 in/hr0.0 mm/hr 0.00 in0.0 mm
09:04 AM 47.4°F8.6°C 41.6°F5.3°C 80% - N16091.8 kmh N -- 29.97 in1014.9 mb 0.00 in0.0 mm 0.00 in/hr0.0 mm/hr 0.00 in0.0 mm
08:59 AM 47.3°F8.5°C 41.4°F5.2°C 80% - N16091.8 kmh N -- 29.97 in1014.9 mb 0.00 in0.0 mm 0.00 in/hr0.0 mm/hr 0.00 in0.0 mm
08:54 AM 47.1°F8.4°C 41.2°F5.1°C 80% - N16091.8 kmh N -- 29.97 in1014.9 mb 0.00 in0.0 mm 0.00 in/hr0.0 mm/hr 0.00 in0.0 mm
08:49 AM 46.9°F8.3°C 41.1°F5.1°C 80% - N16091.8 kmh N -- 29.97 in1014.9 mb 0.00 in0.0 mm 0.00 in/hr0.0 mm/hr 0.00 in0.0 mm
08:44 AM 46.9°F8.3°C 41.1°F5.1°C 80% - N16091.8 kmh N -- 29.96 in1014.6 mb 0.00 in0.0 mm 0.00 in/hr0.0 mm/hr 0.00 in0.0 mm
08:39 AM 46.9°F8.3°C 41.1°F5.1°C 80% - N16091.8 kmh N -- 29.96 in1014.6 mb 0.00 in0.0 mm 0.00 in/hr0.0 mm/hr 0.00 in0.0 mm
08:34 AM 46.5°F8.1°C 40.8°F4.9°C 80% - N16091.8 kmh N -- 29.96 in1014.6 mb 0.00 in0.0 mm 0.00 in/hr0.0 mm/hr 0.00 in0.0 mm
08:29 AM 46.5°F8.1°C 40.8°F4.9°C 80% - N16091.8 kmh N -- 29.96 in1014.6 mb 0.00 in0.0 mm 0.00 in/hr0.0 mm/hr 0.00 in0.0 mm
08:24 AM 46.5°F8.1°C 40.8°F4.9°C 80% - N16091.8 kmh N -- 29.96 in1014.6 mb 0.00 in0.0 mm 0.00 in/hr0.0 mm/hr 0.00 in0.0 mm
08:19 AM 46.7°F8.2°C 40.9°F4.9°C 80% - N16091.8 kmh N -- 29.96 in1014.6 mb 0.00 in0.0 mm 0.00 in/hr0.0 mm/hr 0.00 in0.0 mm
08:14 AM 46.5°F8.1°C 40.8°F4.9°C 80% - N16091.8 kmh N -- 29.96 in1014.6 mb 0.00 in0.0 mm 0.00 in/hr0.0 mm/hr 0.00 in0.0 mm
08:09 AM 46.5°F8.1°C 40.4°F4.7°C 79% - N16091.8 kmh N -- 29.96 in1014.6 mb 0.00 in0.0 mm 0.00 in/hr0.0 mm/hr 0.00 in0.0 mm
08:04 AM 46.7°F8.2°C 40.6°F4.8°C 79% - N16091.8 kmh N -- 29.96 in1014.6 mb 0.00 in0.0 mm 0.00 in/hr0.0 mm/hr 0.00 in0.0 mm
07:59 AM 46.7°F8.2°C 40.6°F4.8°C 79% - N16091.8 kmh N -- 29.95 in1014.2 mb 0.00 in0.0 mm 0.00 in/hr0.0 mm/hr 0.00 in0.0 mm
07:54 AM 46.7°F8.2°C 40.6°F4.8°C 79% - N16091.8 kmh N -- 29.95 in1014.2 mb 0.00 in0.0 mm 0.00 in/hr0.0 mm/hr 0.00 in0.0 mm
07:49 AM 46.7°F8.2°C 40.6°F4.8°C 79% - N16091.8 kmh N -- 29.95 in1014.2 mb 0.00 in0.0 mm 0.00 in/hr0.0 mm/hr 0.00 in0.0 mm
07:44 AM 46.9°F8.3°C 40.4°F4.7°C 79% - N16091.8 kmh N -- 29.95 in1014.2 mb 0.00 in0.0 mm 0.00 in/hr0.0 mm/hr 0.00 in0.0 mm
07:39 AM 46.9°F8.3°C 40.4°F4.7°C 79% - N16091.8 kmh N -- 29.95 in1014.2 mb 0.00 in0.0 mm 0.00 in/hr0.0 mm/hr 0.00 in0.0 mm
07:34 AM 47.1°F8.4°C 40.6°F4.8°C 79% - N16091.8 kmh N -- 29.95 in1014.2 mb 0.00 in0.0 mm 0.00 in/hr0.0 mm/hr 0.00 in0.0 mm
07:29 AM 47.1°F8.4°C 40.6°F4.8°C 79% - N16091.8 kmh N -- 29.96 in1014.6 mb 0.00 in0.0 mm 0.00 in/hr0.0 mm/hr 0.00 in0.0 mm
07:24 AM 47.1°F8.4°C 40.6°F4.8°C 78% - N16091.8 kmh N -- 29.96 in1014.6 mb 0.00 in0.0 mm 0.00 in/hr0.0 mm/hr 0.00 in0.0 mm
07:19 AM 47.1°F8.4°C 40.6°F4.8°C 78% - N16091.8 kmh N -- 29.96 in1014.6 mb 0.00 in0.0 mm 0.00 in/hr0.0 mm/hr 0.00 in0.0 mm
07:14 AM 47.3°F8.5°C 40.7°F4.8°C 78% - N16091.8 kmh N -- 29.96 in1014.6 mb 0.00 in0.0 mm 0.00 in/hr0.0 mm/hr 0.00 in0.0 mm
07:09 AM 47.3°F8.5°C 40.7°F4.8°C 78% - N16091.8 kmh N -- 29.95 in1014.2 mb 0.00 in0.0 mm 0.00 in/hr0.0 mm/hr 0.00 in0.0 mm
07:04 AM 47.4°F8.6°C 40.9°F4.9°C 79% - N16091.8 kmh N -- 29.95 in1014.2 mb 0.00 in0.0 mm 0.00 in/hr0.0 mm/hr 0.00 in0.0 mm
06:59 AM 47.4°F8.6°C 40.9°F4.9°C 79% - N16091.8 kmh N -- 29.95 in1014.2 mb 0.00 in0.0 mm 0.00 in/hr0.0 mm/hr 0.00 in0.0 mm
06:54 AM 47.4°F8.6°C 40.9°F4.9°C 79% - N16091.8 kmh N -- 29.95 in1014.2 mb 0.00 in0.0 mm 0.00 in/hr0.0 mm/hr 0.00 in0.0 mm
06:49 AM 47.4°F8.6°C 40.9°F4.9°C 78% - N16091.8 kmh N -- 29.95 in1014.2 mb 0.00 in0.0 mm 0.00 in/hr0.0 mm/hr 0.00 in0.0 mm
06:44 AM 47.4°F8.6°C 40.9°F4.9°C 78% - N16091.8 kmh N -- 29.95 in1014.2 mb 0.00 in0.0 mm 0.00 in/hr0.0 mm/hr 0.00 in0.0 mm
06:39 AM 47.6°F8.7°C 41.0°F5.0°C 78% - N16091.8 kmh N -- 29.95 in1014.2 mb 0.00 in0.0 mm 0.00 in/hr0.0 mm/hr 0.00 in0.0 mm
06:34 AM 47.8°F8.8°C 41.2°F5.1°C 78% - N16091.8 kmh N -- 29.94 in1013.9 mb 0.00 in0.0 mm 0.00 in/hr0.0 mm/hr 0.00 in0.0 mm
06:29 AM 47.8°F8.8°C 41.2°F5.1°C 78% - N16091.8 kmh N -- 29.95 in1014.2 mb 0.00 in0.0 mm 0.00 in/hr0.0 mm/hr 0.00 in0.0 mm
06:24 AM 47.8°F8.8°C 41.2°F5.1°C 78% - N16091.8 kmh N -- 29.95 in1014.2 mb 0.00 in0.0 mm 0.00 in/hr0.0 mm/hr 0.00 in0.0 mm
06:19 AM 47.8°F8.8°C 41.2°F5.1°C 78% - N16091.8 kmh N -- 29.95 in1014.2 mb 0.00 in0.0 mm 0.00 in/hr0.0 mm/hr 0.00 in0.0 mm
06:14 AM 48.0°F8.9°C 41.4°F5.2°C 78% - N16091.8 kmh N -- 29.95 in1014.2 mb 0.00 in0.0 mm 0.00 in/hr0.0 mm/hr 0.00 in0.0 mm
06:09 AM 48.0°F8.9°C 41.4°F5.2°C 78% - N16091.8 kmh N -- 29.95 in1014.2 mb 0.00 in0.0 mm 0.00 in/hr0.0 mm/hr 0.00 in0.0 mm
06:04 AM 48.0°F8.9°C 41.4°F5.2°C 78% - N16091.8 kmh N -- 29.95 in1014.2 mb 0.00 in0.0 mm 0.00 in/hr0.0 mm/hr 0.00 in0.0 mm
05:59 AM 48.0°F8.9°C 41.4°F5.2°C 78% - N16091.8 kmh N -- 29.95 in1014.2 mb 0.00 in0.0 mm 0.00 in/hr0.0 mm/hr 0.00 in0.0 mm
05:54 AM 48.2°F9.0°C 41.5°F5.3°C 78% - N16091.8 kmh N -- 29.95 in1014.2 mb 0.00 in0.0 mm 0.00 in/hr0.0 mm/hr 0.00 in0.0 mm
05:49 AM 48.3°F9.1°C 41.7°F5.4°C 78% - N16091.8 kmh N -- 29.95 in1014.2 mb 0.00 in0.0 mm 0.00 in/hr0.0 mm/hr 0.00 in0.0 mm
05:44 AM 48.3°F9.1°C 41.7°F5.4°C 78% - N16091.8 kmh N -- 29.95 in1014.2 mb 0.00 in0.0 mm 0.00 in/hr0.0 mm/hr 0.00 in0.0 mm
05:39 AM 48.3°F9.1°C 41.7°F5.4°C 78% - N16091.8 kmh N -- 29.95 in1014.2 mb 0.00 in0.0 mm 0.00 in/hr0.0 mm/hr 0.00 in0.0 mm
05:34 AM 48.5°F9.2°C 41.9°F5.5°C 77% - N16091.8 kmh N -- 29.95 in1014.2 mb 0.00 in0.0 mm 0.00 in/hr0.0 mm/hr 0.00 in0.0 mm
05:29 AM 48.5°F9.2°C 41.9°F5.5°C 77% - N16091.8 kmh N -- 29.95 in1014.2 mb 0.00 in0.0 mm 0.00 in/hr0.0 mm/hr 0.00 in0.0 mm
05:23 AM 48.5°F9.2°C 41.9°F5.5°C 78% - N16091.8 kmh N -- 29.95 in1014.2 mb 0.00 in0.0 mm 0.00 in/hr0.0 mm/hr 0.00 in0.0 mm
05:18 AM 48.7°F9.3°C 42.1°F5.6°C 78% - N16091.8 kmh N -- 29.95 in1014.2 mb 0.00 in0.0 mm 0.00 in/hr0.0 mm/hr 0.00 in0.0 mm
05:13 AM 48.7°F9.3°C 42.1°F5.6°C 78% - N16091.8 kmh N -- 29.94 in1013.9 mb 0.00 in0.0 mm 0.00 in/hr0.0 mm/hr 0.00 in0.0 mm
05:08 AM 48.7°F9.3°C 42.1°F5.6°C 78% - N16091.8 kmh N -- 29.94 in1013.9 mb 0.00 in0.0 mm 0.00 in/hr0.0 mm/hr 0.00 in0.0 mm
05:03 AM 48.7°F9.3°C 42.1°F5.6°C 78% - N16091.8 kmh N -- 29.94 in1013.9 mb 0.00 in0.0 mm 0.00 in/hr0.0 mm/hr 0.00 in0.0 mm
04:58 AM 48.7°F9.3°C 42.1°F5.6°C 78% - N16091.8 kmh N -- 29.94 in1013.9 mb 0.00 in0.0 mm 0.00 in/hr0.0 mm/hr 0.00 in0.0 mm
04:53 AM 48.9°F9.4°C 42.2°F5.7°C 78% - N16091.8 kmh N -- 29.94 in1013.9 mb 0.00 in0.0 mm 0.00 in/hr0.0 mm/hr 0.00 in0.0 mm
04:48 AM 48.9°F9.4°C 42.2°F5.7°C 77% - N16091.8 kmh N -- 29.94 in1013.9 mb 0.00 in0.0 mm 0.00 in/hr0.0 mm/hr 0.00 in0.0 mm
04:43 AM 48.9°F9.4°C 42.2°F5.7°C 78% - N16091.8 kmh N -- 29.94 in1013.9 mb 0.00 in0.0 mm 0.00 in/hr0.0 mm/hr 0.00 in0.0 mm
04:38 AM 49.1°F9.5°C 42.1°F5.6°C 78% - N16091.8 kmh N -- 29.94 in1013.9 mb 0.00 in0.0 mm 0.00 in/hr0.0 mm/hr 0.00 in0.0 mm
04:33 AM 49.1°F9.5°C 42.1°F5.6°C 77% - N16091.8 kmh N -- 29.94 in1013.9 mb 0.00 in0.0 mm 0.00 in/hr0.0 mm/hr 0.00 in0.0 mm
04:28 AM 49.2°F9.6°C 42.3°F5.7°C 77% - N16091.8 kmh N -- 29.94 in1013.9 mb 0.00 in0.0 mm 0.00 in/hr0.0 mm/hr 0.00 in0.0 mm
04:23 AM 49.2°F9.6°C 42.3°F5.7°C 77% - N16091.8 kmh N -- 29.94 in1013.9 mb 0.00 in0.0 mm 0.00 in/hr0.0 mm/hr 0.00 in0.0 mm
04:18 AM 49.4°F9.7°C 42.4°F5.8°C 77% - N16091.8 kmh N -- 29.94 in1013.9 mb 0.00 in0.0 mm 0.00 in/hr0.0 mm/hr 0.00 in0.0 mm
04:13 AM 49.4°F9.7°C 42.4°F5.8°C 77% - N16091.8 kmh N -- 29.94 in1013.9 mb 0.00 in0.0 mm 0.00 in/hr0.0 mm/hr 0.00 in0.0 mm
04:08 AM 49.2°F9.6°C 42.3°F5.7°C 77% - N16091.8 kmh N -- 29.94 in1013.9 mb 0.00 in0.0 mm 0.00 in/hr0.0 mm/hr 0.00 in0.0 mm
04:03 AM 49.4°F9.7°C 42.1°F5.6°C 76% - N16091.8 kmh N -- 29.94 in1013.9 mb 0.00 in0.0 mm 0.00 in/hr0.0 mm/hr 0.00 in0.0 mm
03:58 AM 49.6°F9.8°C 42.6°F5.9°C 76% - N16091.8 kmh N -- 29.94 in1013.9 mb 0.00 in0.0 mm 0.00 in/hr0.0 mm/hr 0.00 in0.0 mm
03:53 AM 49.6°F9.8°C 42.6°F5.9°C 77% - N16091.8 kmh N -- 29.94 in1013.9 mb 0.00 in0.0 mm 0.00 in/hr0.0 mm/hr 0.00 in0.0 mm
03:48 AM 49.8°F9.9°C 42.5°F5.8°C 77% - N16091.8 kmh N -- 29.94 in1013.9 mb 0.00 in0.0 mm 0.00 in/hr0.0 mm/hr 0.00 in0.0 mm
03:43 AM 49.8°F9.9°C 42.5°F5.8°C 77% - N16091.8 kmh N -- 29.94 in1013.9 mb 0.00 in0.0 mm 0.00 in/hr0.0 mm/hr 0.00 in0.0 mm
03:38 AM 49.8°F9.9°C 42.5°F5.8°C 77% - N16091.8 kmh N -- 29.94 in1013.9 mb 0.00 in0.0 mm 0.00 in/hr0.0 mm/hr 0.00 in0.0 mm
03:33 AM 49.8°F9.9°C 42.5°F5.8°C 76% - N16091.8 kmh N -- 29.94 in1013.9 mb 0.00 in0.0 mm 0.00 in/hr0.0 mm/hr 0.00 in0.0 mm
03:28 AM 49.8°F9.9°C 42.5°F5.8°C 76% - N16091.8 kmh N -- 29.94 in1013.9 mb 0.00 in0.0 mm 0.00 in/hr0.0 mm/hr 0.00 in0.0 mm
03:23 AM 50.0°F10.0°C 42.6°F5.9°C 76% - N16091.8 kmh N -- 29.94 in1013.9 mb 0.00 in0.0 mm 0.00 in/hr0.0 mm/hr 0.00 in0.0 mm
03:18 AM 50.0°F10.0°C 42.6°F5.9°C 76% - N16091.8 kmh N -- 29.95 in1014.2 mb 0.00 in0.0 mm 0.00 in/hr0.0 mm/hr 0.00 in0.0 mm
03:13 AM 50.0°F10.0°C 42.6°F5.9°C 76% - N16091.8 kmh N -- 29.95 in1014.2 mb 0.00 in0.0 mm 0.00 in/hr0.0 mm/hr 0.00 in0.0 mm
03:08 AM 50.1°F10.1°C 42.8°F6.0°C 76% - N16091.8 kmh N -- 29.95 in1014.2 mb 0.00 in0.0 mm 0.00 in/hr0.0 mm/hr 0.00 in0.0 mm
03:03 AM 50.3°F10.2°C 43.0°F6.1°C 76% - N16091.8 kmh N -- 29.95 in1014.2 mb 0.00 in0.0 mm 0.00 in/hr0.0 mm/hr 0.00 in0.0 mm
02:58 AM 50.3°F10.2°C 43.0°F6.1°C 76% - N16091.8 kmh N -- 29.94 in1013.9 mb 0.00 in0.0 mm 0.00 in/hr0.0 mm/hr 0.00 in0.0 mm
02:53 AM 50.5°F10.3°C 43.2°F6.2°C 76% - N16091.8 kmh N -- 29.95 in1014.2 mb 0.00 in0.0 mm 0.00 in/hr0.0 mm/hr 0.00 in0.0 mm
02:48 AM 50.5°F10.3°C 43.2°F6.2°C 76% - N16091.8 kmh N -- 29.95 in1014.2 mb 0.00 in0.0 mm 0.00 in/hr0.0 mm/hr 0.00 in0.0 mm
02:43 AM 50.5°F10.3°C 43.2°F6.2°C 76% - N16091.8 kmh N -- 29.94 in1013.9 mb 0.00 in0.0 mm 0.00 in/hr0.0 mm/hr 0.00 in0.0 mm
02:38 AM 50.5°F10.3°C 43.2°F6.2°C 76% - N16091.8 kmh N -- 29.95 in1014.2 mb 0.00 in0.0 mm 0.00 in/hr0.0 mm/hr 0.00 in0.0 mm
02:33 AM 50.7°F10.4°C 43.4°F6.3°C 76% - N16091.8 kmh N -- 29.94 in1013.9 mb 0.00 in0.0 mm 0.00 in/hr0.0 mm/hr 0.00 in0.0 mm
02:28 AM 50.9°F10.5°C 43.2°F6.2°C 76% - N16091.8 kmh N -- 29.94 in1013.9 mb 0.00 in0.0 mm 0.00 in/hr0.0 mm/hr 0.00 in0.0 mm
02:23 AM 50.9°F10.5°C 43.2°F6.2°C 76% - N16091.8 kmh N -- 29.94 in1013.9 mb 0.00 in0.0 mm 0.00 in/hr0.0 mm/hr 0.00 in0.0 mm
02:18 AM 50.9°F10.5°C 43.2°F6.2°C 76% - N16091.8 kmh N -- 29.94 in1013.9 mb 0.00 in0.0 mm 0.00 in/hr0.0 mm/hr 0.00 in0.0 mm
02:13 AM 50.9°F10.5°C 43.2°F6.2°C 75% - N16091.8 kmh N -- 29.94 in1013.9 mb 0.00 in0.0 mm 0.00 in/hr0.0 mm/hr 0.00 in0.0 mm
02:08 AM 51.0°F10.6°C 43.4°F6.3°C 75% - N16091.8 kmh N -- 29.94 in1013.9 mb 0.00 in0.0 mm 0.00 in/hr0.0 mm/hr 0.00 in0.0 mm
02:03 AM 50.9°F10.5°C 43.2°F6.2°C 75% - N16091.8 kmh N -- 29.95 in1014.2 mb 0.00 in0.0 mm 0.00 in/hr0.0 mm/hr 0.00 in0.0 mm
01:58 AM 51.0°F10.6°C 43.4°F6.3°C 75% - N16091.8 kmh N -- 29.95 in1014.2 mb 0.00 in0.0 mm 0.00 in/hr0.0 mm/hr 0.00 in0.0 mm
01:53 AM 51.0°F10.6°C 43.4°F6.3°C 75% - N16091.8 kmh N -- 29.94 in1013.9 mb 0.00 in0.0 mm 0.00 in/hr0.0 mm/hr 0.00 in0.0 mm
01:48 AM 51.2°F10.7°C 43.6°F6.4°C 75% - N16091.8 kmh N -- 29.94 in1013.9 mb 0.00 in0.0 mm 0.00 in/hr0.0 mm/hr 0.00 in0.0 mm
01:43 AM 51.4°F10.8°C 43.7°F6.5°C 75% - N16091.8 kmh N -- 29.95 in1014.2 mb 0.00 in0.0 mm 0.00 in/hr0.0 mm/hr 0.00 in0.0 mm
01:38 AM 51.4°F10.8°C 43.7°F6.5°C 75% - N16091.8 kmh N -- 29.95 in1014.2 mb 0.00 in0.0 mm 0.00 in/hr0.0 mm/hr 0.00 in0.0 mm
01:32 AM 51.4°F10.8°C 43.7°F6.5°C 75% - N16091.8 kmh N -- 29.95 in1014.2 mb 0.00 in0.0 mm 0.00 in/hr0.0 mm/hr 0.00 in0.0 mm
01:27 AM 51.4°F10.8°C 43.7°F6.5°C 75% - N16091.8 kmh N -- 29.95 in1014.2 mb 0.00 in0.0 mm 0.00 in/hr0.0 mm/hr 0.00 in0.0 mm
01:22 AM 51.4°F10.8°C 43.7°F6.5°C 75% - N16091.8 kmh N -- 29.95 in1014.2 mb 0.00 in0.0 mm 0.00 in/hr0.0 mm/hr 0.00 in0.0 mm
01:17 AM 51.6°F10.9°C 43.9°F6.6°C 75% - N16091.8 kmh N -- 29.95 in1014.2 mb 0.00 in0.0 mm 0.00 in/hr0.0 mm/hr 0.00 in0.0 mm
01:12 AM 51.6°F10.9°C 43.9°F6.6°C 75% - N16091.8 kmh N -- 29.95 in1014.2 mb 0.00 in0.0 mm 0.00 in/hr0.0 mm/hr 0.00 in0.0 mm
01:07 AM 51.8°F11.0°C 43.8°F6.6°C 74% - N16091.8 kmh N -- 29.95 in1014.2 mb 0.00 in0.0 mm 0.00 in/hr0.0 mm/hr 0.00 in0.0 mm
01:02 AM 51.9°F11.1°C 43.9°F6.6°C 74% - N16091.8 kmh N -- 29.95 in1014.2 mb 0.00 in0.0 mm 0.00 in/hr0.0 mm/hr 0.00 in0.0 mm
12:57 AM 51.9°F11.1°C 43.9°F6.6°C 74% - N16091.8 kmh N -- 29.95 in1014.2 mb 0.00 in0.0 mm 0.00 in/hr0.0 mm/hr 0.00 in0.0 mm
12:52 AM 51.9°F11.1°C 43.9°F6.6°C 74% - N16091.8 kmh N -- 29.95 in1014.2 mb 0.00 in0.0 mm 0.00 in/hr0.0 mm/hr 0.00 in0.0 mm
12:47 AM 52.1°F11.2°C 44.1°F6.7°C 74% - N16091.8 kmh N -- 29.95 in1014.2 mb 0.00 in0.0 mm 0.00 in/hr0.0 mm/hr 0.00 in0.0 mm
12:42 AM 52.3°F11.3°C 44.3°F6.8°C 74% - N16091.8 kmh N -- 29.95 in1014.2 mb 0.00 in0.0 mm 0.00 in/hr0.0 mm/hr 0.00 in0.0 mm
12:37 AM 52.5°F11.4°C 44.1°F6.7°C 74% - N16091.8 kmh N -- 29.96 in1014.6 mb 0.00 in0.0 mm 0.00 in/hr0.0 mm/hr 0.00 in0.0 mm
12:32 AM 52.5°F11.4°C 44.1°F6.7°C 74% - N16091.8 kmh N -- 29.95 in1014.2 mb 0.00 in0.0 mm 0.00 in/hr0.0 mm/hr 0.00 in0.0 mm
12:27 AM 52.5°F11.4°C 44.1°F6.7°C 74% - N16091.8 kmh N -- 29.95 in1014.2 mb 0.00 in0.0 mm 0.00 in/hr0.0 mm/hr 0.00 in0.0 mm
12:22 AM 52.5°F11.4°C 44.1°F6.7°C 73% - N16091.8 kmh N -- 29.96 in1014.6 mb 0.00 in0.0 mm 0.00 in/hr0.0 mm/hr 0.00 in0.0 mm
12:17 AM 52.7°F11.5°C 44.3°F6.8°C 73% - N16091.8 kmh N -- 29.96 in1014.6 mb 0.00 in0.0 mm 0.00 in/hr0.0 mm/hr 0.00 in0.0 mm
12:12 AM 52.8°F11.6°C 44.4°F6.9°C 73% - N16091.8 kmh N -- 29.96 in1014.6 mb 0.00 in0.0 mm 0.00 in/hr0.0 mm/hr 0.00 in0.0 mm
12:07 AM 53.0°F11.7°C 44.6°F7.0°C 73% - N16091.8 kmh N -- 29.96 in1014.6 mb 0.00 in0.0 mm 0.00 in/hr0.0 mm/hr 0.00 in0.0 mm
12:02 AM 53.0°F11.7°C 44.6°F7.0°C 73% - N16091.8 kmh N -- 29.96 in1014.6 mb 0.00 in0.0 mm 0.00 in/hr0.0 mm/hr 0.00 in0.0 mm